Time;durP1;ratioP1;P1;durP2;ratioP2;P2;SDS_P1;SDS_P2;PMS_P1;PMS_P2;Temp;Humidity;BMP_temperature;BMP_pressure;BME280_temperature;BME280_humidity;BME280_pressure;Samples;Min_cycle;Max_cycle;Signal;HPM_P1;HPM_P2
2021/10/25 00:01:20;;;;;;;3.40;1.80;;;18.50;57.90;;;;;;6194567;23;20508;-80
2021/10/25 00:03:45;;;;;;;3.60;1.90;;;18.50;57.90;;;;;;6219729;23;20133;-80
2021/10/25 00:06:11;;;;;;;3.55;1.95;;;18.50;58.00;;;;;;6214082;23;20182;-81
2021/10/25 00:08:37;;;;;;;5.50;1.85;;;18.50;57.90;;;;;;6214276;23;20637;-81
2021/10/25 00:11:03;;;;;;;4.63;2.15;;;18.50;58.00;;;;;;6214485;23;20466;-81
2021/10/25 00:13:28;;;;;;;2.67;2.03;;;18.50;57.90;;;;;;6189321;23;20153;-81
2021/10/25 00:15:54;;;;;;;4.85;2.00;;;18.50;57.90;;;;;;6214542;23;20177;-81
2021/10/25 00:18:19;;;;;;;7.28;1.90;;;18.50;57.90;;;;;;6215852;23;20217;-81
2021/10/25 00:20:45;;;;;;;3.38;1.85;;;18.50;57.90;;;;;;6215790;23;20627;-81
2021/10/25 00:23:11;;;;;;;4.00;1.90;;;18.50;57.90;;;;;;6214339;23;20574;-81
2021/10/25 00:25:36;;;;;;;4.45;1.90;;;18.50;58.00;;;;;;6216084;23;20139;-81
2021/10/25 00:28:02;;;;;;;5.05;1.90;;;18.50;57.90;;;;;;6215728;23;20389;-81
2021/10/25 00:30:28;;;;;;;5.03;1.80;;;18.40;57.90;;;;;;6216135;23;20596;-81
2021/10/25 00:32:53;;;;;;;5.43;1.92;;;18.40;57.90;;;;;;6214245;23;20138;-81
2021/10/25 00:35:19;;;;;;;6.03;1.92;;;18.40;57.90;;;;;;6215623;23;20134;-81
2021/10/25 00:37:45;;;;;;;3.38;1.90;;;18.40;57.90;;;;;;6214167;23;20556;-81
2021/10/25 00:40:11;;;;;;;4.32;1.88;;;18.40;57.90;;;;;;6215613;23;20139;-81
2021/10/25 00:42:36;;;;;;;3.30;1.85;;;18.40;57.90;;;;;;6215702;23;20134;-81
2021/10/25 00:45:02;;;;;;;4.85;1.83;;;18.40;57.90;;;;;;6214187;23;20134;-81
2021/10/25 00:47:28;;;;;;;4.28;1.98;;;18.40;58.00;;;;;;6214207;23;20138;-81
2021/10/25 00:49:54;;;;;;;6.40;2.10;;;18.40;58.00;;;;;;6214241;23;20134;-81
2021/10/25 00:52:20;;;;;;;4.82;2.00;;;18.40;58.00;;;;;;6215512;23;20134;-81
2021/10/25 00:54:45;;;;;;;4.75;1.80;;;18.40;58.00;;;;;;6215705;23;20506;-80
2021/10/25 00:57:11;;;;;;;3.72;2.00;;;18.40;58.00;;;;;;6215415;23;20162;-81
2021/10/25 00:59:37;;;;;;;3.28;2.03;;;18.40;58.10;;;;;;6215547;23;20181;-81
2021/10/25 01:02:03;;;;;;;5.47;1.70;;;18.40;58.10;;;;;;6215846;23;20554;-81
2021/10/25 01:04:29;;;;;;;4.32;1.77;;;18.40;58.10;;;;;;6213802;23;20185;-81
2021/10/25 01:06:55;;;;;;;2.50;1.75;;;18.40;58.10;;;;;;6215412;23;20168;-81
2021/10/25 01:09:21;;;;;;;6.78;2.30;;;18.40;58.10;;;;;;6214174;23;20134;-81
2021/10/25 01:11:48;;;;;;;4.60;2.15;;;18.40;58.00;;;;;;6215475;23;20138;-81
2021/10/25 01:14:15;;;;;;;3.42;2.10;;;18.40;58.00;;;;;;6214061;23;20134;-81
2021/10/25 01:16:40;;;;;;;2.33;1.70;;;18.40;58.10;;;;;;6214284;23;20177;-81
2021/10/25 01:19:06;;;;;;;2.83;1.90;;;18.40;58.10;;;;;;6217420;23;20138;-81
2021/10/25 01:21:32;;;;;;;2.92;1.80;;;18.30;58.10;;;;;;6216080;23;20162;-81
2021/10/25 01:23:58;;;;;;;4.22;1.85;;;18.40;58.10;;;;;;6215980;23;20137;-81
2021/10/25 01:26:24;;;;;;;4.55;2.00;;;18.40;58.10;;;;;;6215895;23;20168;-81
2021/10/25 01:28:51;;;;;;;4.10;2.00;;;18.30;58.00;;;;;;6215969;23;20162;-81
2021/10/25 01:31:17;;;;;;;3.22;2.10;;;18.30;58.10;;;;;;6217447;23;20142;-81
2021/10/25 01:33:45;;;;;;;3.55;2.05;;;18.30;58.10;;;;;;6217445;23;20186;-81
2021/10/25 01:36:10;;;;;;;4.60;1.90;;;18.30;58.10;;;;;;6217089;23;20232;-81
2021/10/25 01:38:36;;;;;;;3.58;2.20;;;18.30;58.10;;;;;;6217598;23;20570;-81
2021/10/25 01:41:01;;;;;;;3.13;1.63;;;18.30;58.80;;;;;;6217338;23;20457;-81
2021/10/25 01:43:27;;;;;;;4.43;1.80;;;18.30;58.20;;;;;;6215687;23;20460;-81
2021/10/25 01:45:53;;;;;;;3.58;2.15;;;18.30;58.20;;;;;;6215603;23;20138;-81
2021/10/25 01:48:19;;;;;;;4.85;2.15;;;18.30;58.20;;;;;;6215875;23;20134;-81
2021/10/25 01:50:44;;;;;;;5.22;1.98;;;18.30;58.20;;;;;;6215778;23;20525;-81
2021/10/25 01:53:10;;;;;;;3.13;2.00;;;18.30;58.20;;;;;;6217661;23;20134;-81
2021/10/25 01:55:36;;;;;;;3.58;1.92;;;18.30;58.20;;;;;;6216997;23;20554;-81
2021/10/25 01:58:02;;;;;;;3.05;2.22;;;18.30;58.20;;;;;;6217251;23;20138;-81
2021/10/25 02:00:27;;;;;;;3.28;1.92;;;18.30;58.20;;;;;;6217256;23;20137;-81
2021/10/25 02:02:53;;;;;;;5.03;1.75;;;18.30;58.20;;;;;;6217049;23;20565;-81
2021/10/25 02:05:19;;;;;;;3.25;1.92;;;18.30;58.20;;;;;;6215176;23;20687;-81
2021/10/25 02:07:45;;;;;;;3.28;1.73;;;18.30;58.20;;;;;;6217308;23;20142;-81
2021/10/25 02:10:11;;;;;;;4.07;2.00;;;18.30;58.90;;;;;;6215410;23;20142;-81
2021/10/25 02:12:37;;;;;;;2.75;1.80;;;18.30;58.30;;;;;;6215833;23;20217;-81
2021/10/25 02:15:03;;;;;;;6.03;2.08;;;18.30;58.30;;;;;;6216903;23;20165;-81
2021/10/25 02:17:29;;;;;;;3.97;1.98;;;18.30;58.30;;;;;;6216894;23;20161;-81
2021/10/25 02:19:54;;;;;;;4.75;2.00;;;18.20;58.20;;;;;;6215548;23;20184;-81
2021/10/25 02:22:20;;;;;;;3.03;1.67;;;18.30;58.20;;;;;;6215203;23;20158;-81
2021/10/25 02:24:47;;;;;;;3.55;1.80;;;18.20;58.20;;;;;;6215500;23;20134;-81
2021/10/25 02:27:13;;;;;;;2.88;1.75;;;18.30;58.20;;;;;;6217210;23;20138;-81
2021/10/25 02:29:39;;;;;;;2.25;1.90;;;18.20;58.20;;;;;;6214876;23;20523;-81
2021/10/25 02:32:06;;;;;;;4.18;1.90;;;18.30;58.20;;;;;;6216866;23;20569;-80
2021/10/25 02:34:32;;;;;;;4.75;1.90;;;18.20;58.90;;;;;;6215222;23;20144;-81
2021/10/25 02:36:58;;;;;;;5.30;2.00;;;18.20;58.30;;;;;;6216932;23;20173;-81
2021/10/25 02:39:25;;;;;;;3.20;2.10;;;18.20;58.30;;;;;;6215384;23;20161;-81
2021/10/25 02:41:51;;;;;;;4.20;2.00;;;18.20;58.30;;;;;;6215263;23;20126;-81
2021/10/25 02:44:16;;;;;;;3.53;1.90;;;18.20;58.30;;;;;;6216696;23;20134;-81
2021/10/25 02:46:42;;;;;;;3.83;1.83;;;18.20;58.20;;;;;;6215473;23;20144;-80
2021/10/25 02:49:08;;;;;;;4.00;2.00;;;18.20;58.20;;;;;;6216651;23;20134;-81
2021/10/25 02:51:33;;;;;;;3.85;1.70;;;18.20;58.30;;;;;;6216959;23;20138;-80
2021/10/25 02:53:59;;;;;;;2.88;1.80;;;18.20;58.30;;;;;;6216506;23;20141;-80
2021/10/25 02:56:25;;;;;;;3.80;1.75;;;18.20;58.20;;;;;;6189585;23;20169;-81
2021/10/25 02:58:51;;;;;;;4.45;2.15;;;18.20;58.20;;;;;;6216720;23;20265;-81
2021/10/25 03:01:17;;;;;;;2.95;2.20;;;18.20;58.20;;;;;;6216887;23;20204;-81
2021/10/25 03:03:43;;;;;;;3.55;1.90;;;18.20;58.20;;;;;;6216811;23;20161;-81
2021/10/25 03:06:09;;;;;;;3.47;2.03;;;18.20;58.20;;;;;;6242801;23;20193;-81
2021/10/25 03:08:36;;;;;;;3.20;1.90;;;18.20;58.20;;;;;;6247032;23;20162;-81
2021/10/25 03:11:02;;;;;;;3.80;2.00;;;18.20;58.10;;;;;;6247349;23;20145;-81
2021/10/25 03:13:27;;;;;;;3.30;1.90;;;18.30;58.00;;;;;;6219809;23;20138;-81
2021/10/25 03:15:53;;;;;;;4.07;1.73;;;18.30;57.60;;;;;;6246959;23;20172;-81
2021/10/25 03:18:21;;;;;;;3.28;1.88;;;18.30;57.50;;;;;;6247341;23;20146;-81
2021/10/25 03:20:47;;;;;;;4.95;1.90;;;18.40;57.50;;;;;;6219807;23;20442;-81
2021/10/25 03:23:13;;;;;;;3.08;2.20;;;18.40;57.50;;;;;;6220120;23;20140;-81
2021/10/25 03:25:39;;;;;;;4.15;2.00;;;18.40;57.50;;;;;;6246622;23;20527;-81
2021/10/25 03:28:05;;;;;;;2.38;1.90;;;18.40;58.10;;;;;;6246555;23;20134;-81
2021/10/25 03:30:30;;;;;;;4.25;2.13;;;18.40;57.40;;;;;;6220354;23;20144;-81
2021/10/25 03:32:56;;;;;;;5.10;1.83;;;18.50;57.40;;;;;;6219691;23;20557;-81
2021/10/25 03:35:22;;;;;;;2.63;2.00;;;18.50;57.30;;;;;;6246826;23;20558;-81
2021/10/25 03:37:48;;;;;;;3.55;1.90;;;18.50;57.20;;;;;;6219775;23;20581;-81
2021/10/25 03:40:15;;;;;;;4.05;2.10;;;18.60;57.20;;;;;;6219563;23;20192;-81
2021/10/25 03:42:44;;;;;;;4.07;2.10;;;18.60;57.10;;;;;;6220363;23;20129;-80
2021/10/25 03:45:22;;;;;;;3.53;2.10;;;18.50;57.00;;;;;;6246421;23;20129;-81
2021/10/25 03:47:54;;;;;;;4.05;1.83;;;18.60;57.00;;;;;;6222620;23;20144;-81
2021/10/25 03:50:22;;;;;;;2.60;1.80;;;18.60;56.90;;;;;;6246397;23;20126;-81
2021/10/25 03:52:55;;;;;;;3.50;2.17;;;18.60;56.90;;;;;;6220181;23;20125;-80
2021/10/25 03:55:33;;;;;;;2.15;1.83;;;18.70;56.80;;;;;;6221407;23;20136;-81
2021/10/25 04:03:49;;;;;;;3.90;2.10;;;18.70;56.60;;;;;;6222452;23;20133;-81
2021/10/25 04:27:49;;;;;;;2.83;1.85;;;18.90;56.00;;;;;;6246093;23;20165;-81
2021/10/25 04:30:16;;;;;;;2.42;1.73;;;18.90;55.90;;;;;;6220448;23;20434;-81
2021/10/25 04:32:42;;;;;;;2.22;1.88;;;19.00;56.00;;;;;;6219732;23;20129;-81
2021/10/25 04:35:08;;;;;;;3.47;1.90;;;19.00;56.00;;;;;;6219295;23;20187;-81
2021/10/25 04:37:34;;;;;;;4.43;1.85;;;19.00;55.70;;;;;;6194086;23;20180;-81
2021/10/25 04:39:59;;;;;;;2.60;2.03;;;19.00;55.70;;;;;;6245978;23;20134;-81
2021/10/25 04:42:25;;;;;;;3.15;1.73;;;19.00;55.70;;;;;;6246053;23;20133;-81
2021/10/25 04:44:52;;;;;;;3.03;1.70;;;19.00;55.60;;;;;;6219292;23;20561;-81
2021/10/25 04:47:18;;;;;;;1.70;1.40;;;19.00;55.60;;;;;;6219188;23;20130;-82
2021/10/25 04:49:43;;;;;;;2.67;1.60;;;19.00;55.40;;;;;;6219213;23;20561;-80
2021/10/25 04:52:10;;;;;;;2.17;1.60;;;19.10;55.50;;;;;;6245390;23;20438;-81
2021/10/25 04:54:37;;;;;;;3.03;1.77;;;19.10;56.00;;;;;;6245945;23;20153;-81
2021/10/25 04:57:03;;;;;;;3.80;2.10;;;19.10;55.30;;;;;;6245776;23;20165;-80
2021/10/25 04:59:30;;;;;;;3.28;1.63;;;19.10;55.10;;;;;;6219861;23;20137;-82
2021/10/25 05:01:56;;;;;;;1.73;1.60;;;19.10;55.00;;;;;;6220034;23;20133;-82
2021/10/25 05:04:22;;;;;;;2.90;1.75;;;19.10;55.00;;;;;;6219439;23;20166;-82
2021/10/25 05:06:48;;;;;;;3.72;1.75;;;19.10;55.10;;;;;;6246808;23;20181;-82
2021/10/25 05:09:14;;;;;;;3.65;1.75;;;19.10;54.90;;;;;;6246404;23;20153;-82
2021/10/25 05:11:39;;;;;;;2.92;1.90;;;19.10;55.00;;;;;;6221129;23;20130;-82
2021/10/25 05:14:05;;;;;;;2.40;1.63;;;19.10;55.00;;;;;;6248191;23;20134;-81
2021/10/25 05:16:31;;;;;;;1.98;1.58;;;19.10;54.80;;;;;;6219649;23;20611;-81
2021/10/25 05:18:56;;;;;;;2.05;1.80;;;19.10;54.90;;;;;;6245904;23;20162;-81
2021/10/25 05:21:22;;;;;;;2.30;1.60;;;19.10;54.90;;;;;;6245863;23;20199;-81
2021/10/25 05:23:48;;;;;;;2.40;1.85;;;19.10;54.90;;;;;;6218327;23;20576;-80
2021/10/25 05:26:13;;;;;;;2.40;1.90;;;19.10;54.90;;;;;;6217873;23;20138;-81
2021/10/25 05:28:40;;;;;;;2.63;2.03;;;19.10;55.00;;;;;;6218821;23;20137;-81
2021/10/25 05:31:06;;;;;;;2.33;1.73;;;19.10;55.00;;;;;;6219005;23;20130;-79
2021/10/25 05:33:32;;;;;;;2.67;1.90;;;19.10;55.00;;;;;;6219345;23;20212;-81
2021/10/25 05:35:59;;;;;;;2.40;1.88;;;19.10;54.80;;;;;;6219604;23;20224;-80
2021/10/25 05:38:25;;;;;;;3.28;1.83;;;19.10;54.90;;;;;;6219607;23;20148;-80
2021/10/25 05:40:51;;;;;;;3.22;1.95;;;19.10;54.80;;;;;;6219190;23;20212;-80
2021/10/25 05:43:17;;;;;;;2.03;1.80;;;19.10;54.80;;;;;;6219033;23;20592;-80
2021/10/25 05:45:43;;;;;;;2.90;1.73;;;19.10;54.80;;;;;;6194497;23;20142;-81
2021/10/25 05:48:08;;;;;;;4.75;1.85;;;19.20;54.60;;;;;;6218029;23;20145;-80
2021/10/25 05:50:34;;;;;;;3.13;1.90;;;19.20;54.70;;;;;;6219030;23;20130;-81
2021/10/25 05:53:00;;;;;;;2.30;1.60;;;19.20;54.70;;;;;;6218864;23;20157;-81
2021/10/25 05:55:27;;;;;;;3.47;1.90;;;19.20;54.80;;;;;;6245698;23;20169;-81
2021/10/25 05:57:53;;;;;;;2.40;1.90;;;19.20;54.70;;;;;;6245549;23;20169;-81
2021/10/25 06:00:25;;;;;;;1.90;1.70;;;19.20;54.60;;;;;;6219343;23;20172;-80
2021/10/25 06:02:53;;;;;;;2.15;1.50;;;19.20;54.50;;;;;;6246033;23;20122;-81
2021/10/25 06:05:22;;;;;;;1.95;1.75;;;19.20;54.40;;;;;;6246207;23;20196;-82
2021/10/25 06:07:48;;;;;;;2.65;1.83;;;19.20;54.60;;;;;;6218840;23;20134;-80
2021/10/25 06:10:15;;;;;;;3.15;1.80;;;19.20;54.50;;;;;;6246301;23;20161;-80
2021/10/25 06:12:44;;;;;;;2.88;1.83;;;19.20;54.60;;;;;;6220270;23;20136;-80
2021/10/25 06:15:16;;;;;;;3.95;1.75;;;19.20;54.60;;;;;;6221048;23;20199;-80
2021/10/25 06:17:53;;;;;;;3.33;1.80;;;19.20;54.50;;;;;;6246896;23;20496;-80
2021/10/25 06:20:20;;;;;;;2.03;1.73;;;19.20;54.40;;;;;;6247524;23;20560;-81
2021/10/25 06:22:45;;;;;;;1.77;1.40;;;19.20;54.40;;;;;;6220538;23;20553;-80
2021/10/25 06:25:13;;;;;;;4.05;2.00;;;19.20;54.50;;;;;;6247183;23;20213;-80
2021/10/25 06:27:40;;;;;;;2.00;1.70;;;19.30;54.50;;;;;;6221695;23;20224;-81
2021/10/25 06:30:06;;;;;;;1.80;1.70;;;19.20;54.60;;;;;;6220749;23;20557;-80
2021/10/25 06:32:32;;;;;;;2.53;1.77;;;19.30;54.50;;;;;;6220834;23;20157;-81
2021/10/25 06:35:00;;;;;;;2.20;1.65;;;19.30;54.50;;;;;;6195783;23;20187;-80
2021/10/25 06:37:32;;;;;;;2.75;1.80;;;19.30;54.50;;;;;;6250527;23;20166;-81
2021/10/25 06:39:58;;;;;;;2.25;1.77;;;19.20;54.40;;;;;;6249111;23;20216;-81
2021/10/25 06:42:25;;;;;;;3.33;1.85;;;19.30;54.60;;;;;;6221842;23;20627;-81
2021/10/25 06:44:55;;;;;;;3.80;1.80;;;19.30;54.60;;;;;;6223014;23;20575;-81
2021/10/25 06:47:22;;;;;;;3.47;1.80;;;19.20;54.50;;;;;;6250045;23;20204;-82
2021/10/25 06:49:48;;;;;;;2.92;1.90;;;19.30;54.50;;;;;;6250965;23;20130;-81
2021/10/25 06:52:13;;;;;;;4.15;1.67;;;19.30;54.20;;;;;;6200867;23;20461;-82
2021/10/25 06:54:39;;;;;;;3.15;1.95;;;19.30;54.30;;;;;;6252230;23;20133;-81
2021/10/25 06:57:05;;;;;;;2.38;2.17;;;19.30;54.20;;;;;;6224529;23;20165;-80
2021/10/25 06:59:31;;;;;;;1.65;1.45;;;19.30;54.30;;;;;;6224305;23;20157;-79
2021/10/25 07:01:57;;;;;;;2.85;1.95;;;19.30;54.30;;;;;;6199397;23;20134;-81
2021/10/25 07:04:28;;;;;;;3.28;1.83;;;19.30;54.20;;;;;;6224753;23;20263;-81
2021/10/25 07:06:58;;;;;;;2.22;1.83;;;19.30;54.50;;;;;;6224057;23;20688;-79
2021/10/25 07:09:52;;;;;;;3.17;1.83;;;19.30;54.70;;;;;;6199889;23;20604;-82
2021/10/25 07:12:30;;;;;;;2.60;1.88;;;19.40;54.80;;;;;;6158184;23;20484;-82
2021/10/25 07:15:03;;;;;;;2.50;1.73;;;19.40;54.70;;;;;;6158129;23;20155;-81
2021/10/25 07:17:43;;;;;;;2.75;1.90;;;19.40;54.80;;;;;;6132784;23;20586;-82
2021/10/25 08:07:09;;;;;;;4.78;2.17;;;19.40;53.70;;;;;;6203549;23;20169;-80
2021/10/25 08:09:24;;;;;;;2.38;2.00;;;19.40;54.00;;;;;;6225866;23;20149;-81
2021/10/25 08:11:54;;;;;;;4.07;1.95;;;19.50;54.00;;;;;;6247938;23;20206;-81
2021/10/25 08:14:28;;;;;;;2.53;1.85;;;19.50;53.30;;;;;;6247728;23;20129;-82
2021/10/25 08:16:56;;;;;;;2.10;1.90;;;19.50;53.00;;;;;;6222915;23;20850;-81
2021/10/25 08:20:08;;;;;;;3.22;2.00;;;19.50;52.50;;;;;;6249989;23;20137;-81
2021/10/25 08:22:34;;;;;;;4.65;1.83;;;19.50;54.00;;;;;;6158469;23;20166;-81
2021/10/25 08:24:59;;;;;;;2.40;1.90;;;19.50;53.00;;;;;;6162714;23;20135;-81
2021/10/25 08:27:26;;;;;;;4.10;2.10;;;19.50;52.90;;;;;;6117251;23;20154;-80
2021/10/25 08:29:52;;;;;;;3.00;2.05;;;19.50;53.30;;;;;;6142181;23;20169;-80
2021/10/25 08:32:29;;;;;;;16.75;2.95;;;19.50;53.20;;;;;;6187992;23;20155;-81
2021/10/25 08:40:19;;;;;;;4.88;2.08;;;19.50;53.80;;;;;;6185656;23;20135;-82
2021/10/25 08:42:45;;;;;;;6.82;2.38;;;19.50;53.00;;;;;;6188437;23;20146;-83
2021/10/25 08:45:15;;;;;;;4.97;2.17;;;19.50;53.30;;;;;;6188241;23;20146;-81
2021/10/25 08:47:44;;;;;;;4.72;2.13;;;19.50;53.10;;;;;;6139350;23;20181;-82
2021/10/25 08:50:14;;;;;;;6.88;2.20;;;19.50;52.50;;;;;;6116503;23;20150;-81
2021/10/25 08:52:42;;;;;;;5.88;2.10;;;19.50;52.60;;;;;;6183141;23;20153;-82
2021/10/25 08:55:10;;;;;;;8.02;2.08;;;19.60;52.90;;;;;;6199524;23;20156;-83
2021/10/25 08:57:38;;;;;;;9.13;2.35;;;19.60;53.30;;;;;;6202412;23;20169;-83
2021/10/25 09:00:07;;;;;;;5.72;2.10;;;19.60;53.50;;;;;;6200403;23;20142;-82
2021/10/25 09:02:33;;;;;;;6.90;2.10;;;19.50;53.00;;;;;;6222164;23;20177;-81
2021/10/25 09:05:08;;;;;;;9.88;2.20;;;19.60;52.60;;;;;;6246902;23;20589;-82
2021/10/25 09:07:51;;;;;;;10.85;2.40;;;19.60;53.40;;;;;;6196179;23;20157;-81
2021/10/25 09:10:21;;;;;;;4.70;2.42;;;19.60;53.00;;;;;;6220407;23;20152;-81
2021/10/25 09:13:07;;;;;;;9.30;2.00;;;19.70;53.30;;;;;;6194318;23;20169;-81
2021/10/25 09:15:37;;;;;;;7.88;2.28;;;19.60;53.00;;;;;;6247385;23;20165;-81
2021/10/25 09:18:07;;;;;;;4.65;2.30;;;19.60;53.20;;;;;;6195684;23;20196;-81
2021/10/25 09:20:42;;;;;;;7.85;2.50;;;19.60;53.40;;;;;;6221156;23;20150;-81
2021/10/25 09:23:08;;;;;;;8.35;2.47;;;19.70;54.10;;;;;;6222470;23;20125;-82
2021/10/25 09:25:36;;;;;;;7.90;2.05;;;19.70;53.60;;;;;;6223284;23;20137;-81
2021/10/25 09:28:07;;;;;;;8.82;2.53;;;19.70;53.20;;;;;;6224564;23;20145;-81
2021/10/25 09:30:39;;;;;;;4.57;2.17;;;19.70;53.70;;;;;;6252952;23;20146;-81
2021/10/25 09:33:06;;;;;;;6.88;2.75;;;19.70;53.90;;;;;;6252275;23;20165;-80
2021/10/25 09:35:45;;;;;;;3.92;2.22;;;19.60;54.40;;;;;;6221298;23;20175;-80
2021/10/25 09:38:38;;;;;;;5.28;2.30;;;19.60;53.80;;;;;;6223310;23;20137;-81
2021/10/25 09:41:35;;;;;;;5.05;2.28;;;19.60;53.70;;;;;;6252301;23;20134;-82
2021/10/25 09:49:28;;;;;;;3.53;2.20;;;19.60;53.60;;;;;;6211435;23;20145;-82
2021/10/25 09:51:55;;;;;;;8.32;2.55;;;19.60;53.90;;;;;;6203362;23;20211;-83
2021/10/25 09:54:22;;;;;;;8.15;2.42;;;19.70;53.70;;;;;;6226396;23;20146;-83
2021/10/25 09:57:02;;;;;;;5.93;2.05;;;19.60;54.10;;;;;;6229324;23;20203;-82
2021/10/25 09:59:33;;;;;;;3.40;2.20;;;19.60;54.00;;;;;;6250931;23;20136;-83
2021/10/25 10:01:59;;;;;;;5.75;2.08;;;19.60;53.50;;;;;;6222848;23;20141;-80
2021/10/25 10:04:26;;;;;;;4.70;2.28;;;19.60;54.20;;;;;;6248569;23;20181;-82
2021/10/25 10:06:51;;;;;;;8.27;2.40;;;19.60;54.10;;;;;;6249670;23;20137;-85
2021/10/25 10:09:17;;;;;;;3.45;2.20;;;19.60;53.90;;;;;;6248920;23;20176;-82
2021/10/25 10:11:42;;;;;;;5.05;2.10;;;19.50;54.20;;;;;;6249027;23;20140;-81
2021/10/25 10:14:09;;;;;;;4.43;2.10;;;19.50;54.30;;;;;;6222310;23;20584;-83
2021/10/25 10:16:36;;;;;;;6.25;2.30;;;19.60;53.90;;;;;;6248161;23;20157;-83
2021/10/25 10:19:04;;;;;;;3.40;2.28;;;19.50;54.10;;;;;;6196704;23;20180;-82
2021/10/25 10:21:30;;;;;;;4.93;2.15;;;19.50;54.10;;;;;;6222537;23;20469;-84
2021/10/25 10:24:03;;;;;;;5.75;2.10;;;19.50;53.70;;;;;;6221372;23;20168;-83
2021/10/25 10:26:32;;;;;;;4.68;2.40;;;19.50;53.70;;;;;;6247893;23;20130;-84
2021/10/25 10:29:08;;;;;;;4.20;2.15;;;19.50;54.00;;;;;;6222919;23;20125;-82
2021/10/25 10:31:35;;;;;;;4.43;2.30;;;19.50;54.10;;;;;;6196584;23;20145;-81
2021/10/25 10:34:10;;;;;;;4.25;2.40;;;19.50;54.20;;;;;;6223539;23;20138;-82
2021/10/25 10:36:35;;;;;;;5.47;2.30;;;19.50;53.70;;;;;;6198436;23;20227;-82
2021/10/25 10:39:10;;;;;;;7.70;2.30;;;19.50;53.40;;;;;;6222994;23;20309;-84
2021/10/25 10:41:41;;;;;;;4.13;2.10;;;19.60;52.60;;;;;;6198783;23;20133;-82
2021/10/25 10:44:10;;;;;;;4.10;2.20;;;19.50;53.30;;;;;;6224163;23;20126;-83
2021/10/25 10:46:50;;;;;;;9.73;2.35;;;19.50;53.40;;;;;;6226428;23;20134;-82
2021/10/25 10:49:19;;;;;;;4.95;2.22;;;19.50;54.20;;;;;;6224228;23;20157;-82
2021/10/25 10:51:45;;;;;;;6.57;2.40;;;19.50;53.60;;;;;;6200240;23;20146;-79
2021/10/25 10:54:22;;;;;;;3.95;2.30;;;19.60;53.30;;;;;;6227480;23;20145;-84
2021/10/25 10:57:04;;;;;;;3.42;2.35;;;19.60;53.00;;;;;;6206098;23;20264;-82
2021/10/25 10:59:35;;;;;;;5.00;2.40;;;19.60;52.80;;;;;;6231727;23;20170;-82
2021/10/25 11:02:00;;;;;;;4.68;2.30;;;19.60;52.60;;;;;;6230527;23;20137;-82
2021/10/25 11:04:29;;;;;;;5.20;2.28;;;19.60;52.90;;;;;;6229070;23;20580;-83
2021/10/25 11:07:02;;;;;;;5.35;2.28;;;19.50;53.20;;;;;;6202770;23;20162;-83
2021/10/25 11:09:30;;;;;;;3.85;2.10;;;19.60;52.60;;;;;;6204724;23;20150;-81
2021/10/25 11:12:12;;;;;;;5.32;2.38;;;19.60;52.30;;;;;;6226372;23;20125;-82
2021/10/25 11:14:39;;;;;;;6.88;2.22;;;19.60;53.80;;;;;;6225817;23;20130;-80
2021/10/25 11:19:50;;;;;;;4.78;2.80;;;19.60;53.60;;;;;;6228306;23;20435;-80
2021/10/25 11:22:32;;;;;;;3.72;2.08;;;19.60;52.60;;;;;;6253390;23;20133;-82
2021/10/25 11:24:59;;;;;;;4.88;2.10;;;19.60;53.20;;;;;;6253301;23;20137;-81
2021/10/25 11:27:36;;;;;;;2.70;2.20;;;19.60;52.90;;;;;;6256434;23;20157;-81
2021/10/25 11:30:07;;;;;;;3.22;2.30;;;19.60;52.60;;;;;;6205558;23;20154;-84
2021/10/25 11:32:36;;;;;;;3.40;2.20;;;19.50;52.80;;;;;;6232602;23;20129;-82
2021/10/25 11:35:10;;;;;;;2.78;2.22;;;19.60;53.10;;;;;;6231824;23;20212;-82
2021/10/25 11:37:37;;;;;;;3.65;2.38;;;19.60;52.90;;;;;;6204799;23;20176;-83
2021/10/25 11:40:11;;;;;;;3.80;2.30;;;19.60;52.60;;;;;;6233756;23;20136;-84
2021/10/25 11:42:41;;;;;;;2.63;2.25;;;19.60;52.50;;;;;;6209486;23;20138;-83
2021/10/25 11:45:14;;;;;;;3.55;2.55;;;19.70;52.60;;;;;;6205933;23;20476;-83
2021/10/25 11:47:43;;;;;;;3.97;2.10;;;19.60;52.90;;;;;;6231829;23;20133;-83
2021/10/25 11:50:41;;;;;;;3.00;2.30;;;19.60;53.20;;;;;;6235238;23;20122;-82
2021/10/25 11:53:08;;;;;;;4.85;2.42;;;19.60;53.60;;;;;;6170603;23;20150;-81
2021/10/25 11:55:38;;;;;;;4.97;2.53;;;19.60;53.40;;;;;;6153634;23;20154;-80
2021/10/25 11:58:06;;;;;;;3.78;2.28;;;19.60;53.20;;;;;;6171640;23;20184;-83
2021/10/25 12:00:39;;;;;;;2.88;2.30;;;19.50;53.40;;;;;;6172188;23;20158;-80
2021/10/25 12:03:09;;;;;;;3.17;2.28;;;19.60;53.30;;;;;;6200210;23;20257;-82
2021/10/25 12:05:37;;;;;;;3.60;2.28;;;19.60;53.70;;;;;;6197023;23;20200;-82
2021/10/25 12:08:03;;;;;;;6.47;2.55;;;19.60;52.80;;;;;;6222440;23;20158;-82
2021/10/25 12:10:30;;;;;;;3.15;2.20;;;19.60;53.40;;;;;;6222016;23;20465;-82
2021/10/25 12:13:01;;;;;;;4.35;2.40;;;19.60;53.40;;;;;;6169870;23;20146;-84
2021/10/25 12:15:31;;;;;;;3.80;2.22;;;19.50;53.60;;;;;;6171637;23;20142;-83
2021/10/25 12:17:58;;;;;;;4.43;2.30;;;19.60;53.70;;;;;;6193726;23;20210;-81
2021/10/25 12:20:26;;;;;;;4.55;2.35;;;19.60;53.60;;;;;;6171264;23;20201;-84
2021/10/25 12:23:02;;;;;;;5.13;2.30;;;19.60;52.90;;;;;;6144256;23;20618;-83
2021/10/25 12:25:29;;;;;;;3.40;2.40;;;19.60;53.30;;;;;;6225873;23;20553;-81
2021/10/25 12:27:59;;;;;;;3.63;2.20;;;19.60;53.40;;;;;;6225431;23;20260;-82
2021/10/25 12:30:25;;;;;;;4.03;2.35;;;19.60;53.00;;;;;;6225456;23;20145;-81
2021/10/25 12:32:59;;;;;;;2.70;2.40;;;19.60;53.00;;;;;;6202108;23;20172;-80
2021/10/25 12:35:37;;;;;;;5.53;2.20;;;19.60;53.10;;;;;;6227510;23;20132;-82
2021/10/25 12:38:05;;;;;;;4.75;2.35;;;19.60;53.50;;;;;;6227429;23;20176;-80
2021/10/25 12:40:36;;;;;;;6.18;2.47;;;19.60;53.20;;;;;;6203866;23;20154;-83
2021/10/25 12:43:02;;;;;;;5.43;2.67;;;19.50;53.70;;;;;;6202678;23;20492;-84
2021/10/25 12:45:35;;;;;;;3.05;2.47;;;19.60;53.60;;;;;;6225357;23;20204;-83
2021/10/25 12:48:01;;;;;;;2.88;2.50;;;19.50;53.60;;;;;;6202814;23;20145;-80
2021/10/25 12:50:31;;;;;;;4.45;2.50;;;19.50;52.70;;;;;;6197928;23;20152;-83
2021/10/25 12:52:56;;;;;;;3.88;2.50;;;19.60;52.60;;;;;;6198455;23;20153;-82
2021/10/25 12:55:22;;;;;;;3.05;2.25;;;19.60;53.30;;;;;;6197244;23;20153;-82
2021/10/25 12:57:48;;;;;;;3.22;2.45;;;19.60;52.80;;;;;;6197401;23;20173;-82
2021/10/25 13:00:15;;;;;;;3.83;2.33;;;19.50;52.50;;;;;;6194277;23;20608;-81
2021/10/25 13:02:42;;;;;;;4.30;2.40;;;19.60;52.30;;;;;;6195155;23;20153;-82
2021/10/25 13:05:13;;;;;;;4.15;2.40;;;19.60;53.50;;;;;;6224004;23;20189;-82
2021/10/25 13:07:57;;;;;;;3.45;2.58;;;19.60;53.50;;;;;;6224779;23;20129;-82
2021/10/25 13:10:29;;;;;;;3.13;2.40;;;19.50;52.80;;;;;;6199752;23;20152;-81
2021/10/25 13:12:56;;;;;;;3.05;2.63;;;19.50;52.90;;;;;;6201785;23;20168;-83
2021/10/25 13:15:23;;;;;;;2.67;2.40;;;19.60;53.60;;;;;;6202080;23;20469;-82
2021/10/25 13:17:50;;;;;;;3.15;2.40;;;19.60;53.00;;;;;;6226179;23;20168;-82
2021/10/25 13:20:18;;;;;;;4.82;2.53;;;19.50;53.00;;;;;;6224407;23;20141;-81
2021/10/25 13:22:44;;;;;;;3.20;2.63;;;19.50;52.90;;;;;;6248369;23;20121;-81
2021/10/25 13:25:10;;;;;;;3.28;2.15;;;19.60;52.40;;;;;;6220932;23;20217;-82
2021/10/25 13:27:37;;;;;;;2.95;2.53;;;19.60;52.50;;;;;;6222814;23;20134;-81
2021/10/25 13:30:05;;;;;;;3.10;2.53;;;19.60;52.90;;;;;;6224766;23;20176;-81
2021/10/25 13:32:31;;;;;;;4.70;2.47;;;19.50;53.20;;;;;;6223115;23;20133;-82
2021/10/25 13:34:57;;;;;;;4.00;2.47;;;19.60;52.90;;;;;;6223408;23;20168;-81
2021/10/25 13:37:45;;;;;;;3.75;2.63;;;19.60;52.80;;;;;;6197721;23;20212;-81
2021/10/25 13:40:35;;;;;;;2.60;2.40;;;19.60;52.30;;;;;;6186827;23;20205;-81
2021/10/25 13:43:32;;;;;;;;;;;;;;;;;;;;;
2021/10/25 13:46:14;;;;;;;4.47;2.72;;;19.60;52.60;;;;;;6072704;23;20248;-82
2021/10/25 13:48:46;;;;;;;2.90;2.40;;;19.60;52.40;;;;;;6052255;23;20498;-82
2021/10/25 13:51:11;;;;;;;3.88;2.35;;;19.60;52.40;;;;;;5967597;23;20226;-82
2021/10/25 13:53:44;;;;;;;3.38;2.50;;;19.60;52.60;;;;;;5988274;23;20159;-82
2021/10/25 13:56:10;;;;;;;3.78;2.40;;;19.60;52.60;;;;;;5966933;23;20162;-82
2021/10/25 13:58:36;;;;;;;3.20;2.53;;;19.60;53.30;;;;;;5944486;23;20162;-82
2021/10/25 14:01:02;;;;;;;9.80;2.65;;;19.70;52.60;;;;;;5966257;23;20186;-81
2021/10/25 14:03:31;;;;;;;5.85;2.70;;;19.60;52.90;;;;;;5944651;23;20262;-82
2021/10/25 14:06:03;;;;;;;4.78;2.50;;;19.70;52.30;;;;;;5943955;23;20198;-82
2021/10/25 14:08:37;;;;;;;5.63;2.50;;;19.70;52.30;;;;;;5970331;23;20166;-81
2021/10/25 14:11:04;;;;;;;7.47;2.45;;;19.70;52.00;;;;;;5983612;23;20150;-82
2021/10/25 14:13:41;;;;;;;3.40;2.40;;;19.70;52.20;;;;;;6042413;23;20149;-81
2021/10/25 14:16:21;;;;;;;2.97;2.67;;;19.60;52.60;;;;;;6074327;23;20158;-81
2021/10/25 14:18:57;;;;;;;5.40;2.70;;;19.60;53.20;;;;;;6118855;23;20147;-81
2021/10/25 14:21:26;;;;;;;5.47;2.60;;;19.60;53.20;;;;;;6155786;23;20168;-82
2021/10/25 14:23:53;;;;;;;5.30;2.70;;;19.70;53.30;;;;;;6228905;23;20145;-80